createdAt,value
2017-10-30T00:00:54.082Z,6.70
2017-10-30T00:03:22.300Z,6.70
2017-10-30T00:05:53.822Z,6.70
2017-10-30T00:08:22.079Z,6.70
2017-10-30T00:10:51.102Z,6.70
2017-10-30T00:13:19.343Z,6.80
2017-10-30T00:15:47.603Z,6.80
2017-10-30T00:18:16.642Z,6.80
2017-10-30T00:20:44.882Z,6.80
2017-10-30T00:23:13.871Z,6.80
2017-10-30T00:25:42.120Z,6.80
2017-10-30T00:28:11.173Z,6.60
2017-10-30T00:30:40.197Z,6.50
2017-10-30T00:33:08.584Z,6.50
2017-10-30T00:35:36.868Z,6.50
2017-10-30T00:38:05.150Z,6.50
2017-10-30T00:40:33.397Z,6.50
2017-10-30T00:43:01.627Z,6.50
2017-10-30T00:45:29.881Z,6.50
2017-10-30T00:47:59.455Z,6.40
2017-10-30T00:50:27.702Z,6.40
2017-10-30T00:52:55.946Z,6.50
2017-10-30T00:55:24.964Z,6.50
2017-10-30T00:57:53.200Z,6.50
2017-10-30T01:00:21.476Z,6.50
2017-10-30T01:02:49.711Z,6.50
2017-10-30T01:05:18.008Z,6.50
2017-10-30T01:07:46.743Z,6.60
2017-10-30T01:10:15.736Z,6.50
2017-10-30T01:12:44.752Z,6.50
2017-10-30T01:15:13.743Z,6.50
2017-10-30T01:17:41.999Z,6.40
2017-10-30T01:20:11.614Z,6.40
2017-10-30T01:22:39.875Z,6.30
2017-10-30T01:25:08.156Z,6.40
2017-10-30T01:27:36.419Z,6.30
2017-10-30T01:30:04.671Z,6.30
2017-10-30T01:32:32.892Z,6.30
2017-10-30T01:35:01.161Z,6.30
2017-10-30T01:37:30.185Z,6.30
2017-10-30T01:39:58.449Z,6.30
2017-10-30T01:42:26.726Z,6.30
2017-10-30T01:44:55.738Z,6.40
2017-10-30T01:47:23.995Z,6.30
2017-10-30T01:49:52.708Z,6.30
2017-10-30T01:52:20.945Z,6.30
2017-10-30T01:54:49.218Z,6.30
2017-10-30T01:57:17.469Z,6.30
2017-10-30T01:59:45.742Z,6.30
2017-10-30T02:02:13.998Z,6.30
2017-10-30T02:04:42.274Z,6.40
2017-10-30T02:07:10.520Z,6.50
2017-10-30T02:09:39.519Z,6.50
2017-10-30T02:12:08.539Z,6.50
2017-10-30T02:14:36.784Z,6.50
2017-10-30T02:17:05.075Z,6.60
2017-10-30T02:19:34.071Z,6.60
2017-10-30T02:22:02.348Z,6.60
2017-10-30T02:24:30.630Z,6.70
2017-10-30T02:26:58.883Z,6.70
2017-10-30T02:29:27.942Z,6.80
2017-10-30T02:31:56.199Z,6.70
2017-10-30T02:34:24.543Z,6.80
2017-10-30T02:36:53.577Z,6.80
2017-10-30T02:39:21.827Z,6.70
2017-10-30T02:41:50.144Z,6.80
2017-10-30T02:44:18.407Z,6.80
2017-10-30T02:46:46.683Z,6.70
2017-10-30T02:49:14.978Z,6.70
2017-10-30T02:51:43.399Z,6.70
2017-10-30T02:54:11.704Z,6.70
2017-10-30T02:56:39.966Z,6.80
2017-10-30T02:59:08.986Z,6.70
2017-10-30T03:01:37.278Z,6.70
2017-10-30T03:04:05.536Z,6.70
2017-10-30T03:06:33.815Z,6.60
2017-10-30T03:09:02.078Z,6.60
2017-10-30T03:11:30.347Z,6.60
2017-10-30T03:13:58.623Z,6.60
2017-10-30T03:16:26.875Z,6.60
2017-10-30T03:18:55.151Z,6.60
2017-10-30T03:21:24.165Z,6.60
2017-10-30T03:23:52.433Z,6.60
2017-10-30T03:26:21.434Z,6.70
2017-10-30T03:28:50.451Z,6.70
2017-10-30T03:31:19.680Z,6.70
2017-10-30T03:33:47.921Z,6.70
2017-10-30T03:36:16.229Z,6.80
2017-10-30T03:38:44.505Z,6.80
2017-10-30T03:41:12.804Z,6.70
2017-10-30T03:43:41.762Z,6.80
2017-10-30T03:46:10.009Z,6.80
2017-10-30T03:48:39.035Z,6.90
2017-10-30T03:51:07.286Z,6.90
2017-10-30T03:53:36.310Z,6.80
2017-10-30T03:56:05.335Z,6.70
2017-10-30T03:58:33.604Z,6.70
2017-10-30T04:01:01.850Z,6.70
2017-10-30T04:03:30.095Z,6.70
2017-10-30T04:05:59.146Z,6.70
2017-10-30T04:08:27.454Z,6.70
2017-10-30T04:10:55.695Z,6.70
2017-10-30T04:13:23.954Z,6.60
2017-10-30T04:15:52.198Z,6.70
2017-10-30T04:18:20.817Z,6.70
2017-10-30T04:20:49.699Z,6.70
2017-10-30T04:23:18.716Z,6.70
2017-10-30T04:25:46.938Z,6.70
2017-10-30T04:28:15.218Z,6.70
2017-10-30T04:30:43.452Z,6.60
2017-10-30T04:33:11.701Z,6.60
2017-10-30T04:35:40.690Z,6.60
2017-10-30T04:38:09.717Z,6.60
2017-10-30T04:40:37.988Z,6.50
2017-10-30T04:43:06.239Z,6.50
2017-10-30T04:45:35.252Z,6.50
2017-10-30T04:48:03.507Z,6.50
2017-10-30T04:50:31.742Z,6.60
2017-10-30T04:52:59.987Z,6.60
2017-10-30T04:55:28.250Z,6.70
2017-10-30T04:57:56.510Z,6.70
2017-10-30T05:00:25.557Z,6.70
2017-10-30T05:02:53.808Z,6.70
2017-10-30T05:05:22.051Z,6.70
2017-10-30T05:07:51.095Z,6.60
2017-10-30T05:10:19.319Z,6.60
2017-10-30T05:12:48.379Z,6.60
2017-10-30T05:15:16.607Z,6.60
2017-10-30T05:17:45.603Z,6.60
2017-10-30T05:20:14.631Z,6.60
2017-10-30T05:22:42.874Z,6.60
2017-10-30T05:25:11.907Z,6.70
2017-10-30T05:27:40.599Z,6.70
2017-10-30T05:30:08.876Z,6.80
2017-10-30T05:32:37.101Z,6.80
2017-10-30T05:35:05.327Z,6.80
2017-10-30T05:37:33.600Z,6.80
2017-10-30T05:40:01.846Z,6.80
2017-10-30T05:42:30.921Z,6.70
2017-10-30T05:44:59.178Z,6.70
2017-10-30T05:47:27.407Z,6.70
2017-10-30T05:49:56.450Z,6.60
2017-10-30T05:52:24.695Z,6.60
2017-10-30T05:54:52.960Z,6.50
2017-10-30T05:57:21.236Z,6.50
2017-10-30T05:59:49.516Z,6.60
2017-10-30T06:02:18.645Z,6.60
2017-10-30T06:04:47.266Z,6.70
2017-10-30T06:07:15.498Z,6.70
2017-10-30T06:09:43.749Z,6.60
2017-10-30T06:12:11.978Z,6.60
2017-10-30T06:14:40.250Z,6.60
2017-10-30T06:17:08.526Z,6.70
2017-10-30T06:19:36.778Z,6.70
2017-10-30T06:22:05.054Z,6.70
2017-10-30T06:24:33.313Z,6.70
2017-10-30T06:27:02.304Z,6.80
2017-10-30T06:29:30.574Z,6.80
2017-10-30T06:31:59.567Z,6.70
2017-10-30T06:34:27.867Z,6.70
2017-10-30T06:36:56.095Z,6.80
2017-10-30T06:39:24.345Z,6.80
2017-10-30T06:41:52.579Z,6.80
2017-10-30T06:44:21.621Z,6.80
2017-10-30T06:46:49.874Z,6.80
2017-10-30T06:49:18.099Z,6.70
2017-10-30T06:51:47.135Z,6.80
2017-10-30T06:54:16.110Z,6.80
2017-10-30T06:56:45.151Z,6.70
2017-10-30T06:59:13.410Z,6.70
2017-10-30T07:01:41.680Z,6.70
2017-10-30T07:04:10.743Z,6.70
2017-10-30T07:06:39.756Z,6.70
2017-10-30T07:09:08.020Z,6.70
2017-10-30T07:11:36.355Z,6.70
2017-10-30T07:14:04.596Z,6.90
2017-10-30T07:16:33.609Z,7.00
2017-10-30T07:19:01.862Z,7.00
2017-10-30T07:21:30.129Z,7.10
2017-10-30T07:23:59.133Z,7.20
2017-10-30T07:26:28.138Z,7.20
2017-10-30T07:28:56.399Z,7.20
2017-10-30T07:31:25.432Z,7.20
2017-10-30T07:33:54.029Z,7.20
2017-10-30T07:36:22.270Z,7.10
2017-10-30T07:38:50.612Z,7.20
2017-10-30T07:41:18.830Z,7.30
2017-10-30T07:43:47.087Z,7.20
2017-10-30T07:46:15.390Z,7.30
2017-10-30T07:48:43.681Z,7.40
2017-10-30T07:51:11.945Z,7.40
2017-10-30T07:53:40.198Z,7.50
2017-10-30T07:56:08.486Z,7.50
2017-10-30T07:58:36.758Z,7.70
2017-10-30T08:01:05.754Z,7.60
2017-10-30T08:03:34.106Z,7.60
2017-10-30T08:06:02.355Z,7.60
2017-10-30T08:08:30.630Z,7.70
2017-10-30T08:10:58.905Z,7.80
2017-10-30T08:13:27.167Z,7.90
2017-10-30T08:15:55.430Z,7.80
2017-10-30T08:18:23.700Z,7.80
2017-10-30T08:20:51.968Z,7.80
2017-10-30T08:23:21.064Z,8.00
2017-10-30T08:25:49.311Z,8.00
2017-10-30T08:28:17.578Z,8.00
2017-10-30T08:30:45.812Z,8.00
2017-10-30T08:33:14.128Z,8.00
2017-10-30T08:35:43.251Z,8.00
2017-10-30T08:38:11.498Z,7.90
2017-10-30T08:40:40.801Z,8.10
2017-10-30T08:43:10.186Z,7.90
2017-10-30T08:45:38.508Z,7.90
2017-10-30T08:48:06.768Z,8.00
2017-10-30T08:50:35.835Z,8.00
2017-10-30T08:53:04.635Z,8.00
2017-10-30T08:55:33.365Z,8.00
2017-10-30T08:58:01.599Z,8.00
2017-10-30T09:00:30.595Z,8.10
2017-10-30T09:02:58.869Z,8.20
2017-10-30T09:05:27.490Z,8.20
2017-10-30T09:07:56.547Z,8.20
2017-10-30T09:10:24.913Z,8.20
2017-10-30T09:12:53.192Z,8.40
2017-10-30T09:15:21.470Z,8.50
2017-10-30T09:17:49.761Z,8.60
2017-10-30T09:20:18.142Z,8.70
2017-10-30T09:22:47.381Z,8.60
2017-10-30T09:25:15.634Z,8.60
2017-10-30T09:27:43.923Z,8.80
2017-10-30T09:30:12.215Z,9.00
2017-10-30T09:32:41.401Z,9.10
2017-10-30T09:35:09.670Z,9.00
2017-10-30T09:37:37.957Z,9.00
2017-10-30T09:40:07.301Z,9.10
2017-10-30T09:42:35.575Z,9.20
2017-10-30T09:45:03.873Z,9.30
2017-10-30T09:47:33.052Z,8.90
2017-10-30T09:50:02.062Z,9.20
2017-10-30T09:52:30.322Z,9.20
2017-10-30T09:54:58.601Z,9.20
2017-10-30T09:57:26.881Z,9.10
2017-10-30T09:59:55.187Z,9.00
2017-10-30T10:02:23.470Z,9.00
2017-10-30T10:04:51.763Z,8.90
2017-10-30T10:07:20.051Z,9.00
2017-10-30T10:09:49.085Z,8.90
2017-10-30T10:12:17.437Z,8.90
2017-10-30T10:14:45.725Z,8.80
2017-10-30T10:17:14.006Z,8.90
2017-10-30T10:19:43.048Z,8.80
2017-10-30T10:22:11.348Z,8.80
2017-10-30T10:24:39.626Z,9.00
2017-10-30T10:27:07.883Z,9.10
2017-10-30T10:29:36.194Z,9.30
2017-10-30T10:32:04.507Z,9.20
2017-10-30T10:34:33.287Z,9.20
2017-10-30T10:37:02.281Z,9.50
2017-10-30T10:39:32.162Z,9.40
2017-10-30T10:42:00.452Z,9.40
2017-10-30T10:44:29.501Z,9.60
2017-10-30T10:46:57.811Z,9.60
2017-10-30T10:49:26.098Z,9.70
2017-10-30T10:51:54.349Z,9.70
2017-10-30T10:54:22.611Z,9.80
2017-10-30T10:56:51.660Z,9.70
2017-10-30T10:59:20.697Z,9.50
2017-10-30T11:01:48.930Z,9.50
2017-10-30T11:04:17.954Z,9.70
2017-10-30T11:06:46.182Z,9.70
2017-10-30T11:09:15.679Z,9.60
2017-10-30T11:11:43.936Z,9.50
2017-10-30T11:14:12.207Z,9.50
2017-10-30T11:16:40.480Z,9.50
2017-10-30T11:19:08.742Z,9.50
2017-10-30T11:21:37.091Z,9.50
2017-10-30T11:24:05.367Z,9.60
2017-10-30T11:26:34.401Z,9.50
2017-10-30T11:29:02.687Z,9.70
2017-10-30T11:31:30.935Z,9.80
2017-10-30T11:33:59.954Z,9.70
2017-10-30T11:36:28.222Z,9.70
2017-10-30T11:38:56.473Z,9.60
2017-10-30T11:41:24.717Z,9.40
2017-10-30T11:43:53.000Z,9.30
2017-10-30T11:46:21.291Z,9.50
2017-10-30T11:48:49.557Z,9.50
2017-10-30T11:51:17.829Z,9.50
2017-10-30T11:53:46.128Z,9.60
2017-10-30T11:56:14.359Z,9.60
2017-10-30T11:58:42.662Z,9.60
2017-10-30T12:01:10.901Z,9.60
2017-10-30T12:03:39.185Z,9.40
2017-10-30T12:06:07.489Z,9.40
2017-10-30T12:08:36.177Z,9.50
2017-10-30T12:11:04.404Z,9.60
2017-10-30T12:13:32.638Z,9.70
2017-10-30T12:16:00.922Z,9.70
2017-10-30T12:18:29.188Z,9.90
2017-10-30T12:20:57.467Z,10.10
2017-10-30T12:23:25.719Z,10.30
2017-10-30T12:25:53.967Z,10.00
2017-10-30T12:28:23.015Z,9.60
2017-10-30T12:30:51.339Z,9.60
2017-10-30T12:33:19.582Z,9.60
2017-10-30T12:35:47.874Z,9.60
2017-10-30T12:38:16.171Z,9.60
2017-10-30T12:40:45.207Z,9.60
2017-10-30T12:43:13.450Z,9.60
2017-10-30T12:45:42.466Z,9.60
2017-10-30T12:48:10.723Z,9.60
2017-10-30T12:50:39.744Z,9.80
2017-10-30T12:53:08.012Z,9.70
2017-10-30T12:55:37.860Z,9.90
2017-10-30T12:58:06.952Z,10.00
2017-10-30T13:00:35.209Z,10.00
2017-10-30T13:03:03.549Z,9.90
2017-10-30T13:05:32.889Z,9.90
2017-10-30T13:08:01.194Z,10.00
2017-10-30T13:10:29.511Z,10.00
2017-10-30T13:12:57.798Z,10.20
2017-10-30T13:15:26.078Z,10.10
2017-10-30T13:17:54.393Z,10.20
2017-10-30T13:20:22.658Z,10.20
2017-10-30T13:22:51.522Z,10.10
2017-10-30T13:25:20.547Z,10.10
2017-10-30T13:27:48.818Z,10.10
2017-10-30T13:30:17.070Z,9.90
2017-10-30T13:32:46.050Z,10.00
2017-10-30T13:35:16.394Z,9.80
2017-10-30T13:37:44.981Z,9.80
2017-10-30T13:40:13.250Z,9.80
2017-10-30T13:42:43.991Z,9.70
2017-10-30T13:45:13.363Z,9.80
2017-10-30T13:47:43.339Z,9.80
2017-10-30T13:50:11.966Z,9.80
2017-10-30T13:52:41.035Z,10.00
2017-10-30T13:55:09.301Z,10.00
2017-10-30T13:57:37.576Z,10.00
2017-10-30T14:00:06.833Z,10.00
2017-10-30T14:02:37.088Z,9.80
2017-10-30T14:05:06.483Z,9.90
2017-10-30T14:07:35.510Z,9.90
2017-10-30T14:10:03.767Z,9.90
2017-10-30T14:12:33.230Z,9.80
2017-10-30T14:15:01.497Z,9.70
2017-10-30T14:17:31.527Z,9.80
2017-10-30T14:20:01.341Z,9.80
2017-10-30T14:22:29.669Z,9.80
2017-10-30T14:24:59.625Z,9.70
2017-10-30T14:27:27.857Z,9.70
2017-10-30T14:29:56.185Z,9.70
2017-10-30T14:32:24.482Z,9.60
2017-10-30T14:34:52.793Z,9.40
2017-10-30T14:37:21.078Z,9.40
2017-10-30T14:39:49.357Z,9.40
2017-10-30T14:42:17.674Z,9.30
2017-10-30T14:44:46.535Z,9.20
2017-10-30T14:47:15.866Z,9.20
2017-10-30T14:49:46.086Z,9.20
2017-10-30T14:52:17.695Z,9.30
2017-10-30T14:54:48.553Z,9.30
2017-10-30T14:57:16.801Z,9.50
2017-10-30T14:59:46.549Z,9.50
2017-10-30T15:02:16.458Z,9.50
2017-10-30T15:04:46.689Z,9.70
2017-10-30T15:07:15.028Z,9.80
2017-10-30T15:09:44.962Z,9.60
2017-10-30T15:12:13.532Z,9.50
2017-10-30T15:14:44.067Z,9.30
2017-10-30T15:17:13.319Z,9.30
2017-10-30T15:19:42.724Z,9.40
2017-10-30T15:22:12.735Z,9.40
2017-10-30T15:24:41.034Z,9.50
2017-10-30T15:27:10.526Z,9.50
2017-10-30T15:29:40.160Z,9.40
2017-10-30T15:32:09.246Z,9.10
2017-10-30T15:34:38.596Z,9.20
2017-10-30T15:37:06.847Z,9.10
2017-10-30T15:39:36.326Z,9.30
2017-10-30T15:42:04.547Z,9.30
2017-10-30T15:44:32.825Z,9.30
2017-10-30T15:47:01.120Z,9.40
2017-10-30T15:49:29.351Z,9.40
2017-10-30T15:51:57.641Z,9.30
2017-10-30T15:54:25.954Z,9.30
2017-10-30T15:56:54.677Z,9.40
2017-10-30T15:59:22.909Z,9.40
2017-10-30T16:01:51.147Z,9.50
2017-10-30T16:04:19.457Z,9.40
2017-10-30T16:06:47.672Z,9.40
2017-10-30T16:09:16.769Z,9.30
2017-10-30T16:11:45.430Z,9.30
2017-10-30T16:14:13.720Z,9.40
2017-10-30T16:16:41.976Z,9.40
2017-10-30T16:19:10.221Z,9.40
2017-10-30T16:21:38.484Z,9.40
2017-10-30T16:24:07.487Z,9.50
2017-10-30T16:26:35.816Z,9.50
2017-10-30T16:29:04.101Z,9.50
2017-10-30T16:31:32.327Z,9.50
2017-10-30T16:34:01.360Z,9.40
2017-10-30T16:36:29.648Z,9.40
2017-10-30T16:38:57.899Z,9.40
2017-10-30T16:41:26.224Z,9.40
2017-10-30T16:43:54.427Z,9.40
2017-10-30T16:46:22.742Z,9.40
2017-10-30T16:48:51.000Z,9.30
2017-10-30T16:51:19.289Z,9.30
2017-10-30T16:53:47.527Z,9.30
2017-10-30T16:56:16.544Z,9.20
2017-10-30T16:58:44.877Z,9.20
2017-10-30T17:01:13.136Z,9.20
2017-10-30T17:03:41.393Z,9.10
2017-10-30T17:06:10.022Z,9.10
2017-10-30T17:08:38.278Z,9.20
2017-10-30T17:11:06.557Z,9.20
2017-10-30T17:13:34.799Z,9.20
2017-10-30T17:16:03.140Z,9.20
2017-10-30T17:18:32.149Z,9.10
2017-10-30T17:21:01.219Z,9.10
2017-10-30T17:23:29.486Z,9.00
2017-10-30T17:25:57.727Z,8.80
2017-10-30T17:28:26.005Z,8.50
2017-10-30T17:30:54.235Z,8.40
2017-10-30T17:33:23.287Z,8.30
2017-10-30T17:35:51.537Z,8.30
2017-10-30T17:38:19.843Z,8.20
2017-10-30T17:40:48.091Z,8.10
2017-10-30T17:43:17.070Z,7.90
2017-10-30T17:45:46.123Z,7.90
2017-10-30T17:48:14.376Z,7.90
2017-10-30T17:50:42.675Z,7.90
2017-10-30T17:53:10.999Z,7.90
2017-10-30T17:55:39.227Z,7.90
2017-10-30T17:58:07.694Z,7.80
2017-10-30T18:00:35.952Z,7.70
2017-10-30T18:03:04.229Z,7.70
2017-10-30T18:05:32.496Z,7.70
2017-10-30T18:08:01.547Z,7.60
2017-10-30T18:10:29.834Z,7.60
2017-10-30T18:12:58.102Z,7.60
2017-10-30T18:15:26.396Z,7.60
2017-10-30T18:17:54.679Z,7.60
2017-10-30T18:20:22.994Z,7.50
2017-10-30T18:22:51.282Z,7.40
2017-10-30T18:25:19.546Z,7.40
2017-10-30T18:27:47.820Z,7.30
2017-10-30T18:30:16.423Z,7.20
2017-10-30T18:32:45.459Z,7.30
2017-10-30T18:35:15.618Z,7.30
2017-10-30T18:37:43.907Z,7.30
2017-10-30T18:40:13.855Z,7.30
2017-10-30T18:42:42.241Z,7.30
2017-10-30T18:45:11.266Z,7.30
2017-10-30T18:47:40.398Z,7.20
2017-10-30T18:50:09.456Z,7.10
2017-10-30T18:52:37.783Z,7.10
2017-10-30T18:55:07.942Z,7.00
2017-10-30T18:57:38.079Z,7.00
2017-10-30T19:00:07.163Z,6.90
2017-10-30T19:02:36.230Z,6.90
2017-10-30T19:05:04.523Z,6.90
2017-10-30T19:07:32.746Z,7.00
2017-10-30T19:10:01.049Z,7.00
2017-10-30T19:12:29.677Z,7.10
2017-10-30T19:14:57.965Z,7.10
2017-10-30T19:17:26.996Z,7.10
2017-10-30T19:19:56.573Z,7.00
2017-10-30T19:22:24.808Z,7.00
2017-10-30T19:24:53.088Z,7.00
2017-10-30T19:27:21.426Z,6.90
2017-10-30T19:29:50.100Z,6.80
2017-10-30T19:32:18.375Z,6.70
2017-10-30T19:34:46.852Z,6.70
2017-10-30T19:37:15.209Z,6.70
2017-10-30T19:39:43.606Z,6.60
2017-10-30T19:42:11.881Z,6.60
2017-10-30T19:44:41.902Z,6.60
2017-10-30T19:47:11.088Z,6.60
2017-10-30T19:49:41.560Z,6.60
2017-10-30T19:52:12.932Z,6.60
2017-10-30T19:54:41.568Z,6.60
2017-10-30T19:57:10.765Z,6.70
2017-10-30T19:59:42.146Z,6.70
2017-10-30T20:02:12.380Z,6.80
2017-10-30T20:04:41.691Z,6.80
2017-10-30T20:07:27.452Z,6.80
2017-10-30T20:10:02.298Z,6.60
2017-10-30T20:12:30.886Z,6.60
2017-10-30T20:14:59.208Z,6.60
2017-10-30T20:17:27.521Z,6.50
2017-10-30T20:19:56.570Z,6.40
2017-10-30T20:22:26.431Z,6.40
2017-10-30T20:24:55.478Z,6.50
2017-10-30T20:27:24.557Z,6.50
2017-10-30T20:29:52.814Z,6.40
2017-10-30T20:32:22.929Z,6.40
2017-10-30T20:34:52.516Z,6.40
2017-10-30T20:37:22.758Z,6.20
2017-10-30T20:39:52.324Z,6.20
2017-10-30T20:42:21.868Z,6.10
2017-10-30T20:44:50.338Z,6.20
2017-10-30T20:47:18.738Z,6.10
2017-10-30T20:49:48.595Z,6.10
2017-10-30T20:52:16.867Z,6.00
2017-10-30T20:54:46.202Z,6.00
2017-10-30T20:57:16.279Z,5.90
2017-10-30T20:59:45.428Z,5.90
2017-10-30T21:02:13.737Z,5.90
2017-10-30T21:04:44.437Z,5.80
2017-10-30T21:07:13.241Z,5.80
2017-10-30T21:09:42.402Z,5.70
2017-10-30T21:12:10.640Z,5.70
2017-10-30T21:14:39.334Z,5.70
2017-10-30T21:17:07.637Z,5.60
2017-10-30T21:19:37.383Z,5.50
2017-10-30T21:22:06.460Z,5.50
2017-10-30T21:24:34.961Z,5.50
2017-10-30T21:27:04.468Z,5.40
2017-10-30T21:29:33.464Z,5.40
2017-10-30T21:32:02.633Z,5.40
2017-10-30T21:34:32.592Z,5.30
2017-10-30T21:37:04.118Z,5.20
2017-10-30T21:39:34.661Z,5.20
2017-10-30T21:42:03.826Z,5.20
2017-10-30T21:44:32.096Z,5.10
2017-10-30T21:47:01.244Z,5.10
2017-10-30T21:49:30.602Z,5.10
2017-10-30T21:52:00.364Z,5.10
2017-10-30T21:54:28.932Z,5.00
2017-10-30T21:56:59.327Z,5.00
2017-10-30T21:59:29.849Z,4.90
2017-10-30T22:02:00.633Z,4.90
2017-10-30T22:04:30.747Z,4.90
2017-10-30T22:07:11.397Z,4.80
2017-10-30T22:09:40.958Z,4.80
2017-10-30T22:12:09.983Z,4.70
2017-10-30T22:14:39.280Z,4.70
2017-10-30T22:17:07.607Z,4.70
2017-10-30T22:19:35.889Z,4.60
2017-10-30T22:22:04.962Z,4.40
2017-10-30T22:24:35.065Z,4.40
2017-10-30T22:27:03.334Z,4.40
2017-10-30T22:29:32.548Z,4.40
2017-10-30T22:32:00.861Z,4.40
2017-10-30T22:34:30.090Z,4.30
2017-10-30T22:36:58.403Z,4.30
2017-10-30T22:39:28.846Z,4.20
2017-10-30T22:41:58.364Z,4.20
2017-10-30T22:44:27.669Z,4.20
2017-10-30T22:46:55.924Z,4.10
2017-10-30T22:49:24.446Z,4.10
2017-10-30T22:51:54.420Z,4.00
2017-10-30T22:54:22.680Z,4.00
2017-10-30T22:56:51.366Z,3.90
2017-10-30T22:59:19.634Z,3.90
2017-10-30T23:01:49.393Z,3.90
2017-10-30T23:04:18.446Z,3.80
2017-10-30T23:06:46.764Z,3.80
2017-10-30T23:09:15.052Z,3.70
2017-10-30T23:11:44.513Z,3.70
2017-10-30T23:14:12.766Z,3.70
2017-10-30T23:16:41.161Z,3.70
2017-10-30T23:19:09.453Z,3.90
2017-10-30T23:21:38.522Z,4.10
2017-10-30T23:24:06.816Z,4.00
2017-10-30T23:26:35.132Z,4.10
2017-10-30T23:29:03.378Z,4.10
2017-10-30T23:31:32.426Z,4.00
2017-10-30T23:34:01.335Z,4.00
2017-10-30T23:36:30.366Z,4.10
2017-10-30T23:38:58.640Z,4.00
2017-10-30T23:41:26.884Z,4.20
2017-10-30T23:43:55.168Z,4.20
2017-10-30T23:46:23.396Z,4.20
2017-10-30T23:48:53.183Z,4.20
2017-10-30T23:51:21.427Z,4.20
2017-10-30T23:53:49.730Z,4.20
2017-10-30T23:56:17.968Z,4.20
2017-10-30T23:58:46.982Z,4.40
